Terminal Aerodrome Forecast
Issued by NWS Wakefield, VA

Current Version | Previous Version | Text Only | Print | Product List | Glossary On
Versions: 1 2 3 4 5 6 7 8 9 10 11 12 13 14 15
000
FTUS41 KAKQ 022207 AAA
TAFECG
TAF AMD
KECG 022207Z 0222/0318 23012G20KT P6SM BKN100
     FM022300 24010G18KT P6SM VCSH SCT050 OVC100
     FM030000 30010KT P6SM BKN050
      TEMPO 0300/0302 VRB15G30KT 2SM +TSRA SCT030CB OVC050
     FM030200 VRB04KT 5SM BR BKN030
     FM030800 20005KT 3SM -SHRA OVC015=

USA.gov is the U.S. government's official web portal to all federal, state and local government web resources and services.